sensor_id;sensor_type;location;lat;lon;timestamp;P1;durP1;ratioP1;P2;durP2;ratioP2
32096;SDS011;18610;49.916;8.284;2024-01-30T00:00:32;39.75;;;21.30;;
32096;SDS011;18610;49.916;8.284;2024-01-30T00:02:59;45.30;;;21.90;;
32096;SDS011;18610;49.916;8.284;2024-01-30T00:05:26;40.47;;;20.75;;
32096;SDS011;18610;49.916;8.284;2024-01-30T00:07:52;40.83;;;20.98;;
32096;SDS011;18610;49.916;8.284;2024-01-30T00:10:20;47.25;;;21.63;;
32096;SDS011;18610;49.916;8.284;2024-01-30T00:12:47;48.95;;;21.90;;
32096;SDS011;18610;49.916;8.284;2024-01-30T00:15:13;45.63;;;21.58;;
32096;SDS011;18610;49.916;8.284;2024-01-30T00:17:40;39.47;;;22.10;;
32096;SDS011;18610;49.916;8.284;2024-01-30T00:20:07;53.22;;;22.83;;
32096;SDS011;18610;49.916;8.284;2024-01-30T00:22:34;37.42;;;20.65;;
32096;SDS011;18610;49.916;8.284;2024-01-30T00:25:01;38.33;;;21.52;;
32096;SDS011;18610;49.916;8.284;2024-01-30T00:27:29;48.00;;;24.52;;
32096;SDS011;18610;49.916;8.284;2024-01-30T00:29:56;39.03;;;21.52;;
32096;SDS011;18610;49.916;8.284;2024-01-30T00:32:23;43.10;;;22.45;;
32096;SDS011;18610;49.916;8.284;2024-01-30T00:34:49;46.58;;;23.33;;
32096;SDS011;18610;49.916;8.284;2024-01-30T00:37:16;42.65;;;21.73;;
32096;SDS011;18610;49.916;8.284;2024-01-30T00:39:43;40.95;;;20.92;;
32096;SDS011;18610;49.916;8.284;2024-01-30T00:42:09;47.45;;;20.70;;
32096;SDS011;18610;49.916;8.284;2024-01-30T00:44:37;51.67;;;22.38;;
32096;SDS011;18610;49.916;8.284;2024-01-30T00:47:04;42.47;;;21.27;;
32096;SDS011;18610;49.916;8.284;2024-01-30T00:49:31;44.97;;;21.77;;
32096;SDS011;18610;49.916;8.284;2024-01-30T00:51:58;45.53;;;24.30;;
32096;SDS011;18610;49.916;8.284;2024-01-30T00:54:24;45.60;;;23.83;;
32096;SDS011;18610;49.916;8.284;2024-01-30T00:56:51;46.15;;;24.48;;
32096;SDS011;18610;49.916;8.284;2024-01-30T00:59:17;53.47;;;23.85;;
32096;SDS011;18610;49.916;8.284;2024-01-30T01:01:45;45.88;;;22.00;;
32096;SDS011;18610;49.916;8.284;2024-01-30T01:04:12;42.70;;;22.48;;
32096;SDS011;18610;49.916;8.284;2024-01-30T01:06:39;42.75;;;23.05;;
32096;SDS011;18610;49.916;8.284;2024-01-30T01:09:07;47.60;;;24.40;;
32096;SDS011;18610;49.916;8.284;2024-01-30T01:11:37;43.45;;;23.90;;
32096;SDS011;18610;49.916;8.284;2024-01-30T01:14:04;43.42;;;23.58;;
32096;SDS011;18610;49.916;8.284;2024-01-30T01:16:31;45.70;;;25.55;;
32096;SDS011;18610;49.916;8.284;2024-01-30T01:18:59;48.00;;;24.85;;
32096;SDS011;18610;49.916;8.284;2024-01-30T01:21:25;44.47;;;23.63;;
32096;SDS011;18610;49.916;8.284;2024-01-30T01:23:52;41.63;;;21.90;;
32096;SDS011;18610;49.916;8.284;2024-01-30T01:26:19;49.55;;;25.88;;
32096;SDS011;18610;49.916;8.284;2024-01-30T01:28:45;51.15;;;25.55;;
32096;SDS011;18610;49.916;8.284;2024-01-30T01:31:12;49.65;;;24.13;;
32096;SDS011;18610;49.916;8.284;2024-01-30T01:33:39;48.80;;;22.75;;
32096;SDS011;18610;49.916;8.284;2024-01-30T01:36:07;52.45;;;22.90;;
32096;SDS011;18610;49.916;8.284;2024-01-30T01:38:33;41.50;;;21.48;;
32096;SDS011;18610;49.916;8.284;2024-01-30T01:41:00;39.35;;;20.25;;
32096;SDS011;18610;49.916;8.284;2024-01-30T01:43:27;44.15;;;21.33;;
32096;SDS011;18610;49.916;8.284;2024-01-30T01:45:53;48.80;;;22.85;;
32096;SDS011;18610;49.916;8.284;2024-01-30T01:48:20;40.53;;;21.88;;
32096;SDS011;18610;49.916;8.284;2024-01-30T01:50:47;43.92;;;23.45;;
32096;SDS011;18610;49.916;8.284;2024-01-30T01:53:16;45.10;;;23.77;;
32096;SDS011;18610;49.916;8.284;2024-01-30T01:55:43;51.92;;;25.08;;
32096;SDS011;18610;49.916;8.284;2024-01-30T01:58:09;47.00;;;24.08;;
32096;SDS011;18610;49.916;8.284;2024-01-30T02:00:38;45.65;;;24.05;;
32096;SDS011;18610;49.916;8.284;2024-01-30T02:03:09;40.65;;;23.38;;
32096;SDS011;18610;49.916;8.284;2024-01-30T02:05:37;43.55;;;21.35;;
32096;SDS011;18610;49.916;8.284;2024-01-30T02:08:04;37.35;;;21.70;;
32096;SDS011;18610;49.916;8.284;2024-01-30T02:10:34;41.72;;;21.55;;
32096;SDS011;18610;49.916;8.284;2024-01-30T02:13:00;36.40;;;21.73;;
32096;SDS011;18610;49.916;8.284;2024-01-30T02:15:28;50.00;;;23.85;;
32096;SDS011;18610;49.916;8.284;2024-01-30T02:17:55;46.95;;;24.20;;
32096;SDS011;18610;49.916;8.284;2024-01-30T02:20:21;45.97;;;23.25;;
32096;SDS011;18610;49.916;8.284;2024-01-30T02:22:52;51.67;;;23.40;;
32096;SDS011;18610;49.916;8.284;2024-01-30T02:25:20;46.20;;;23.80;;
32096;SDS011;18610;49.916;8.284;2024-01-30T02:27:55;38.53;;;21.23;;
32096;SDS011;18610;49.916;8.284;2024-01-30T02:30:25;51.53;;;23.58;;
32096;SDS011;18610;49.916;8.284;2024-01-30T02:32:52;45.65;;;22.13;;
32096;SDS011;18610;49.916;8.284;2024-01-30T02:35:18;39.85;;;21.98;;
32096;SDS011;18610;49.916;8.284;2024-01-30T02:37:45;43.83;;;22.48;;
32096;SDS011;18610;49.916;8.284;2024-01-30T02:40:13;47.70;;;21.83;;
32096;SDS011;18610;49.916;8.284;2024-01-30T02:42:40;53.38;;;22.17;;
32096;SDS011;18610;49.916;8.284;2024-01-30T02:45:07;41.03;;;20.90;;
32096;SDS011;18610;49.916;8.284;2024-01-30T02:47:35;53.13;;;21.63;;
32096;SDS011;18610;49.916;8.284;2024-01-30T02:50:02;42.00;;;22.05;;
32096;SDS011;18610;49.916;8.284;2024-01-30T02:52:29;52.40;;;22.60;;
32096;SDS011;18610;49.916;8.284;2024-01-30T02:54:56;50.90;;;24.20;;
32096;SDS011;18610;49.916;8.284;2024-01-30T02:57:24;46.72;;;24.13;;
32096;SDS011;18610;49.916;8.284;2024-01-30T02:59:50;49.22;;;25.17;;
32096;SDS011;18610;49.916;8.284;2024-01-30T03:02:17;59.15;;;24.92;;
32096;SDS011;18610;49.916;8.284;2024-01-30T03:04:44;43.15;;;23.20;;
32096;SDS011;18610;49.916;8.284;2024-01-30T03:07:11;51.67;;;24.88;;
32096;SDS011;18610;49.916;8.284;2024-01-30T03:09:38;41.50;;;22.60;;
32096;SDS011;18610;49.916;8.284;2024-01-30T03:12:07;39.83;;;20.92;;
32096;SDS011;18610;49.916;8.284;2024-01-30T03:14:35;48.67;;;24.00;;
32096;SDS011;18610;49.916;8.284;2024-01-30T03:17:02;45.38;;;23.80;;
32096;SDS011;18610;49.916;8.284;2024-01-30T03:19:29;42.00;;;23.85;;
32096;SDS011;18610;49.916;8.284;2024-01-30T03:21:56;47.97;;;23.10;;
32096;SDS011;18610;49.916;8.284;2024-01-30T03:24:22;44.15;;;23.35;;
32096;SDS011;18610;49.916;8.284;2024-01-30T03:26:49;42.45;;;22.65;;
32096;SDS011;18610;49.916;8.284;2024-01-30T03:29:15;43.35;;;23.08;;
32096;SDS011;18610;49.916;8.284;2024-01-30T03:31:43;44.15;;;24.23;;
32096;SDS011;18610;49.916;8.284;2024-01-30T03:34:10;38.13;;;22.90;;
32096;SDS011;18610;49.916;8.284;2024-01-30T03:36:37;41.30;;;21.02;;
32096;SDS011;18610;49.916;8.284;2024-01-30T03:39:04;46.65;;;21.65;;
32096;SDS011;18610;49.916;8.284;2024-01-30T03:41:31;32.47;;;20.83;;
32096;SDS011;18610;49.916;8.284;2024-01-30T03:43:57;42.60;;;22.65;;
32096;SDS011;18610;49.916;8.284;2024-01-30T03:46:24;37.65;;;23.83;;
32096;SDS011;18610;49.916;8.284;2024-01-30T03:48:52;43.05;;;22.35;;
32096;SDS011;18610;49.916;8.284;2024-01-30T03:51:19;41.08;;;21.88;;
32096;SDS011;18610;49.916;8.284;2024-01-30T03:53:45;44.42;;;21.42;;
32096;SDS011;18610;49.916;8.284;2024-01-30T03:56:12;41.08;;;22.02;;
32096;SDS011;18610;49.916;8.284;2024-01-30T03:58:39;38.10;;;20.13;;
32096;SDS011;18610;49.916;8.284;2024-01-30T04:01:06;50.78;;;20.83;;
32096;SDS011;18610;49.916;8.284;2024-01-30T04:03:33;41.53;;;20.45;;
32096;SDS011;18610;49.916;8.284;2024-01-30T04:06:01;37.83;;;20.95;;
32096;SDS011;18610;49.916;8.284;2024-01-30T04:08:27;48.35;;;20.50;;
32096;SDS011;18610;49.916;8.284;2024-01-30T04:10:54;41.45;;;21.25;;
32096;SDS011;18610;49.916;8.284;2024-01-30T04:13:20;41.47;;;22.30;;
32096;SDS011;18610;49.916;8.284;2024-01-30T04:15:47;42.95;;;20.73;;
32096;SDS011;18610;49.916;8.284;2024-01-30T04:18:14;41.88;;;20.23;;
32096;SDS011;18610;49.916;8.284;2024-01-30T04:20:40;37.05;;;21.23;;
32096;SDS011;18610;49.916;8.284;2024-01-30T04:23:09;41.65;;;21.50;;
32096;SDS011;18610;49.916;8.284;2024-01-30T04:25:35;44.65;;;23.45;;
32096;SDS011;18610;49.916;8.284;2024-01-30T04:28:02;43.00;;;22.77;;
32096;SDS011;18610;49.916;8.284;2024-01-30T04:30:29;40.00;;;21.02;;
32096;SDS011;18610;49.916;8.284;2024-01-30T04:32:56;44.55;;;22.92;;
32096;SDS011;18610;49.916;8.284;2024-01-30T04:35:22;47.33;;;22.83;;
32096;SDS011;18610;49.916;8.284;2024-01-30T04:37:50;49.97;;;23.05;;
32096;SDS011;18610;49.916;8.284;2024-01-30T04:40:19;45.78;;;23.83;;
32096;SDS011;18610;49.916;8.284;2024-01-30T04:42:45;48.38;;;23.63;;
32096;SDS011;18610;49.916;8.284;2024-01-30T04:45:12;39.85;;;21.58;;
32096;SDS011;18610;49.916;8.284;2024-01-30T04:47:39;39.63;;;22.75;;
32096;SDS011;18610;49.916;8.284;2024-01-30T04:50:07;40.40;;;22.48;;
32096;SDS011;18610;49.916;8.284;2024-01-30T04:52:34;45.50;;;23.00;;
32096;SDS011;18610;49.916;8.284;2024-01-30T04:55:01;44.47;;;23.48;;
32096;SDS011;18610;49.916;8.284;2024-01-30T04:57:30;40.83;;;21.35;;
32096;SDS011;18610;49.916;8.284;2024-01-30T04:59:58;36.05;;;20.83;;
32096;SDS011;18610;49.916;8.284;2024-01-30T05:02:25;36.05;;;20.95;;
32096;SDS011;18610;49.916;8.284;2024-01-30T05:04:52;45.95;;;20.33;;
32096;SDS011;18610;49.916;8.284;2024-01-30T05:07:18;42.90;;;23.00;;
32096;SDS011;18610;49.916;8.284;2024-01-30T05:09:45;35.20;;;21.17;;
32096;SDS011;18610;49.916;8.284;2024-01-30T05:12:11;36.65;;;20.60;;
32096;SDS011;18610;49.916;8.284;2024-01-30T05:14:39;40.30;;;20.38;;
32096;SDS011;18610;49.916;8.284;2024-01-30T05:17:06;36.08;;;19.65;;
32096;SDS011;18610;49.916;8.284;2024-01-30T05:19:35;32.85;;;19.30;;
32096;SDS011;18610;49.916;8.284;2024-01-30T05:22:01;42.00;;;21.17;;
32096;SDS011;18610;49.916;8.284;2024-01-30T05:24:28;42.58;;;22.27;;
32096;SDS011;18610;49.916;8.284;2024-01-30T05:26:55;40.00;;;20.92;;
32096;SDS011;18610;49.916;8.284;2024-01-30T05:29:21;38.67;;;20.85;;
32096;SDS011;18610;49.916;8.284;2024-01-30T05:31:49;42.67;;;22.38;;
32096;SDS011;18610;49.916;8.284;2024-01-30T05:34:16;42.20;;;21.42;;
32096;SDS011;18610;49.916;8.284;2024-01-30T05:36:43;43.72;;;20.77;;
32096;SDS011;18610;49.916;8.284;2024-01-30T05:39:10;39.15;;;22.42;;
32096;SDS011;18610;49.916;8.284;2024-01-30T05:41:36;43.83;;;22.30;;
32096;SDS011;18610;49.916;8.284;2024-01-30T05:44:03;36.72;;;22.77;;
32096;SDS011;18610;49.916;8.284;2024-01-30T05:46:30;39.58;;;22.00;;
32096;SDS011;18610;49.916;8.284;2024-01-30T05:48:58;42.33;;;22.58;;
32096;SDS011;18610;49.916;8.284;2024-01-30T05:51:24;39.45;;;21.85;;
32096;SDS011;18610;49.916;8.284;2024-01-30T05:53:51;36.83;;;21.80;;
32096;SDS011;18610;49.916;8.284;2024-01-30T05:56:18;45.65;;;23.10;;
32096;SDS011;18610;49.916;8.284;2024-01-30T05:58:44;42.40;;;22.10;;
32096;SDS011;18610;49.916;8.284;2024-01-30T06:01:11;45.30;;;21.63;;
32096;SDS011;18610;49.916;8.284;2024-01-30T06:03:38;43.60;;;21.88;;
32096;SDS011;18610;49.916;8.284;2024-01-30T06:06:07;43.30;;;23.20;;
32096;SDS011;18610;49.916;8.284;2024-01-30T06:08:33;44.20;;;22.48;;
32096;SDS011;18610;49.916;8.284;2024-01-30T06:11:00;39.78;;;21.70;;
32096;SDS011;18610;49.916;8.284;2024-01-30T06:13:26;38.13;;;22.05;;
32096;SDS011;18610;49.916;8.284;2024-01-30T06:15:55;41.17;;;22.60;;
32096;SDS011;18610;49.916;8.284;2024-01-30T06:18:22;39.42;;;22.60;;
32096;SDS011;18610;49.916;8.284;2024-01-30T06:20:48;45.45;;;23.77;;
32096;SDS011;18610;49.916;8.284;2024-01-30T06:23:17;44.75;;;22.85;;
32096;SDS011;18610;49.916;8.284;2024-01-30T06:25:44;39.72;;;22.98;;
32096;SDS011;18610;49.916;8.284;2024-01-30T06:28:10;47.03;;;21.70;;
32096;SDS011;18610;49.916;8.284;2024-01-30T06:30:37;42.28;;;24.10;;
32096;SDS011;18610;49.916;8.284;2024-01-30T06:33:03;41.65;;;22.98;;
32096;SDS011;18610;49.916;8.284;2024-01-30T06:35:30;41.72;;;22.17;;
32096;SDS011;18610;49.916;8.284;2024-01-30T06:37:57;47.03;;;23.38;;
32096;SDS011;18610;49.916;8.284;2024-01-30T06:40:26;53.85;;;23.00;;
32096;SDS011;18610;49.916;8.284;2024-01-30T06:42:52;62.67;;;25.15;;
32096;SDS011;18610;49.916;8.284;2024-01-30T06:45:19;65.03;;;26.35;;
32096;SDS011;18610;49.916;8.284;2024-01-30T06:47:46;50.30;;;24.02;;
32096;SDS011;18610;49.916;8.284;2024-01-30T06:50:12;61.40;;;25.75;;
32096;SDS011;18610;49.916;8.284;2024-01-30T06:52:39;67.90;;;28.45;;
32096;SDS011;18610;49.916;8.284;2024-01-30T06:55:06;71.00;;;31.52;;
32096;SDS011;18610;49.916;8.284;2024-01-30T06:57:35;67.65;;;31.05;;
32096;SDS011;18610;49.916;8.284;2024-01-30T07:00:02;69.97;;;32.08;;
32096;SDS011;18610;49.916;8.284;2024-01-30T07:02:29;66.43;;;32.42;;
32096;SDS011;18610;49.916;8.284;2024-01-30T07:04:55;77.10;;;34.83;;
32096;SDS011;18610;49.916;8.284;2024-01-30T07:07:22;71.95;;;31.60;;
32096;SDS011;18610;49.916;8.284;2024-01-30T07:09:49;100.70;;;32.63;;
32096;SDS011;18610;49.916;8.284;2024-01-30T07:12:20;63.17;;;28.90;;
32096;SDS011;18610;49.916;8.284;2024-01-30T07:14:48;53.67;;;28.83;;
32096;SDS011;18610;49.916;8.284;2024-01-30T07:17:15;50.30;;;27.50;;
32096;SDS011;18610;49.916;8.284;2024-01-30T07:19:42;49.50;;;26.42;;
32096;SDS011;18610;49.916;8.284;2024-01-30T07:22:09;47.65;;;25.05;;
32096;SDS011;18610;49.916;8.284;2024-01-30T07:24:35;41.70;;;22.02;;
32096;SDS011;18610;49.916;8.284;2024-01-30T07:27:02;46.38;;;23.85;;
32096;SDS011;18610;49.916;8.284;2024-01-30T07:29:29;52.75;;;25.50;;
32096;SDS011;18610;49.916;8.284;2024-01-30T07:31:57;52.45;;;25.70;;
32096;SDS011;18610;49.916;8.284;2024-01-30T07:34:24;51.42;;;27.55;;
32096;SDS011;18610;49.916;8.284;2024-01-30T07:36:50;59.33;;;28.75;;
32096;SDS011;18610;49.916;8.284;2024-01-30T07:39:17;56.20;;;25.42;;
32096;SDS011;18610;49.916;8.284;2024-01-30T07:41:44;53.05;;;26.77;;
32096;SDS011;18610;49.916;8.284;2024-01-30T07:44:10;59.97;;;26.23;;
32096;SDS011;18610;49.916;8.284;2024-01-30T07:46:37;55.13;;;26.00;;
32096;SDS011;18610;49.916;8.284;2024-01-30T07:49:05;55.63;;;27.38;;
32096;SDS011;18610;49.916;8.284;2024-01-30T07:51:31;54.63;;;25.92;;
32096;SDS011;18610;49.916;8.284;2024-01-30T07:53:58;50.45;;;24.20;;
32096;SDS011;18610;49.916;8.284;2024-01-30T07:56:25;49.70;;;25.17;;
32096;SDS011;18610;49.916;8.284;2024-01-30T07:58:51;50.70;;;26.00;;
32096;SDS011;18610;49.916;8.284;2024-01-30T08:01:18;55.20;;;26.75;;
32096;SDS011;18610;49.916;8.284;2024-01-30T08:03:45;67.78;;;30.83;;
32096;SDS011;18610;49.916;8.284;2024-01-30T08:06:13;55.10;;;27.02;;
32096;SDS011;18610;49.916;8.284;2024-01-30T08:08:40;47.15;;;27.02;;
32096;SDS011;18610;49.916;8.284;2024-01-30T08:11:06;69.82;;;33.17;;
32096;SDS011;18610;49.916;8.284;2024-01-30T08:13:33;62.50;;;31.20;;
32096;SDS011;18610;49.916;8.284;2024-01-30T08:16:00;63.20;;;34.40;;
32096;SDS011;18610;49.916;8.284;2024-01-30T08:18:27;71.10;;;32.05;;
32096;SDS011;18610;49.916;8.284;2024-01-30T08:20:53;56.75;;;28.67;;
32096;SDS011;18610;49.916;8.284;2024-01-30T08:23:21;68.38;;;29.88;;
32096;SDS011;18610;49.916;8.284;2024-01-30T08:25:48;53.60;;;26.13;;
32096;SDS011;18610;49.916;8.284;2024-01-30T08:28:15;48.55;;;26.00;;
32096;SDS011;18610;49.916;8.284;2024-01-30T08:30:41;49.60;;;24.85;;
32096;SDS011;18610;49.916;8.284;2024-01-30T08:33:08;63.95;;;31.63;;
32096;SDS011;18610;49.916;8.284;2024-01-30T08:35:35;106.25;;;46.10;;
32096;SDS011;18610;49.916;8.284;2024-01-30T08:38:01;71.05;;;34.03;;
32096;SDS011;18610;49.916;8.284;2024-01-30T08:40:29;89.20;;;41.40;;
32096;SDS011;18610;49.916;8.284;2024-01-30T08:42:56;86.05;;;41.10;;
32096;SDS011;18610;49.916;8.284;2024-01-30T08:45:23;55.22;;;29.98;;
32096;SDS011;18610;49.916;8.284;2024-01-30T08:47:49;42.47;;;26.50;;
32096;SDS011;18610;49.916;8.284;2024-01-30T08:50:16;54.15;;;30.15;;
32096;SDS011;18610;49.916;8.284;2024-01-30T08:52:43;42.70;;;25.02;;
32096;SDS011;18610;49.916;8.284;2024-01-30T08:55:10;43.85;;;27.17;;
32096;SDS011;18610;49.916;8.284;2024-01-30T08:57:38;47.67;;;27.20;;
32096;SDS011;18610;49.916;8.284;2024-01-30T09:00:05;60.60;;;34.55;;
32096;SDS011;18610;49.916;8.284;2024-01-30T09:02:34;57.58;;;33.85;;
32096;SDS011;18610;49.916;8.284;2024-01-30T09:05:01;53.00;;;32.80;;
32096;SDS011;18610;49.916;8.284;2024-01-30T09:07:28;51.13;;;30.05;;
32096;SDS011;18610;49.916;8.284;2024-01-30T09:09:54;43.20;;;27.92;;
32096;SDS011;18610;49.916;8.284;2024-01-30T09:12:21;38.95;;;27.10;;
32096;SDS011;18610;49.916;8.284;2024-01-30T09:14:49;45.13;;;27.38;;
32096;SDS011;18610;49.916;8.284;2024-01-30T09:17:16;43.55;;;27.27;;
32096;SDS011;18610;49.916;8.284;2024-01-30T09:19:42;42.50;;;24.88;;
32096;SDS011;18610;49.916;8.284;2024-01-30T09:22:09;44.90;;;24.80;;
32096;SDS011;18610;49.916;8.284;2024-01-30T09:24:36;44.88;;;27.02;;
32096;SDS011;18610;49.916;8.284;2024-01-30T09:27:02;57.80;;;31.70;;
32096;SDS011;18610;49.916;8.284;2024-01-30T09:29:32;55.67;;;33.95;;
32096;SDS011;18610;49.916;8.284;2024-01-30T09:32:00;44.80;;;28.17;;
32096;SDS011;18610;49.916;8.284;2024-01-30T09:34:27;57.35;;;31.67;;
32096;SDS011;18610;49.916;8.284;2024-01-30T09:36:54;38.08;;;25.80;;
32096;SDS011;18610;49.916;8.284;2024-01-30T09:39:20;30.70;;;20.92;;
32096;SDS011;18610;49.916;8.284;2024-01-30T09:41:48;32.25;;;19.25;;
32096;SDS011;18610;49.916;8.284;2024-01-30T09:44:18;32.03;;;18.67;;
32096;SDS011;18610;49.916;8.284;2024-01-30T09:46:47;29.90;;;19.63;;
32096;SDS011;18610;49.916;8.284;2024-01-30T09:49:15;26.52;;;19.48;;
32096;SDS011;18610;49.916;8.284;2024-01-30T09:51:43;29.02;;;18.83;;
32096;SDS011;18610;49.916;8.284;2024-01-30T09:54:10;26.77;;;19.73;;
32096;SDS011;18610;49.916;8.284;2024-01-30T09:56:40;35.40;;;21.35;;
32096;SDS011;18610;49.916;8.284;2024-01-30T09:59:06;32.65;;;21.35;;
32096;SDS011;18610;49.916;8.284;2024-01-30T10:01:34;34.10;;;21.48;;
32096;SDS011;18610;49.916;8.284;2024-01-30T10:04:01;31.58;;;20.02;;
32096;SDS011;18610;49.916;8.284;2024-01-30T10:06:29;31.38;;;21.25;;
32096;SDS011;18610;49.916;8.284;2024-01-30T10:08:56;36.35;;;21.80;;
32096;SDS011;18610;49.916;8.284;2024-01-30T10:11:22;29.17;;;20.48;;
32096;SDS011;18610;49.916;8.284;2024-01-30T10:13:49;34.75;;;20.58;;
32096;SDS011;18610;49.916;8.284;2024-01-30T10:16:15;32.05;;;21.15;;
32096;SDS011;18610;49.916;8.284;2024-01-30T10:18:42;32.42;;;20.77;;
32096;SDS011;18610;49.916;8.284;2024-01-30T10:21:09;32.63;;;20.55;;
32096;SDS011;18610;49.916;8.284;2024-01-30T10:23:37;29.70;;;19.65;;
32096;SDS011;18610;49.916;8.284;2024-01-30T10:26:04;30.88;;;21.10;;
32096;SDS011;18610;49.916;8.284;2024-01-30T10:28:33;32.35;;;20.25;;
32096;SDS011;18610;49.916;8.284;2024-01-30T10:31:00;36.75;;;22.58;;
32096;SDS011;18610;49.916;8.284;2024-01-30T10:33:28;31.38;;;20.23;;
32096;SDS011;18610;49.916;8.284;2024-01-30T10:35:55;29.10;;;19.67;;
32096;SDS011;18610;49.916;8.284;2024-01-30T10:38:28;38.97;;;22.85;;
32096;SDS011;18610;49.916;8.284;2024-01-30T10:40:56;33.20;;;21.98;;
32096;SDS011;18610;49.916;8.284;2024-01-30T10:43:24;34.03;;;21.85;;
32096;SDS011;18610;49.916;8.284;2024-01-30T10:45:57;39.17;;;23.98;;
32096;SDS011;18610;49.916;8.284;2024-01-30T10:48:31;40.50;;;24.58;;
32096;SDS011;18610;49.916;8.284;2024-01-30T10:51:05;38.60;;;23.75;;
32096;SDS011;18610;49.916;8.284;2024-01-30T10:53:31;41.10;;;23.80;;
32096;SDS011;18610;49.916;8.284;2024-01-30T10:56:00;43.78;;;25.25;;
32096;SDS011;18610;49.916;8.284;2024-01-30T10:58:28;42.90;;;22.77;;
32096;SDS011;18610;49.916;8.284;2024-01-30T11:00:55;44.92;;;21.33;;
32096;SDS011;18610;49.916;8.284;2024-01-30T11:03:22;40.38;;;22.15;;
32096;SDS011;18610;49.916;8.284;2024-01-30T11:05:49;36.60;;;22.08;;
32096;SDS011;18610;49.916;8.284;2024-01-30T11:08:22;35.58;;;20.95;;
32096;SDS011;18610;49.916;8.284;2024-01-30T11:10:54;35.67;;;20.77;;
32096;SDS011;18610;49.916;8.284;2024-01-30T11:13:23;31.35;;;19.35;;
32096;SDS011;18610;49.916;8.284;2024-01-30T11:15:53;31.42;;;18.00;;
32096;SDS011;18610;49.916;8.284;2024-01-30T11:18:23;34.25;;;19.65;;
32096;SDS011;18610;49.916;8.284;2024-01-30T11:20:50;35.42;;;18.83;;
32096;SDS011;18610;49.916;8.284;2024-01-30T11:23:17;31.88;;;19.17;;
32096;SDS011;18610;49.916;8.284;2024-01-30T11:25:44;68.18;;;20.25;;
32096;SDS011;18610;49.916;8.284;2024-01-30T11:28:12;30.42;;;19.75;;
32096;SDS011;18610;49.916;8.284;2024-01-30T11:30:42;34.28;;;19.50;;
32096;SDS011;18610;49.916;8.284;2024-01-30T11:33:09;28.38;;;19.60;;
32096;SDS011;18610;49.916;8.284;2024-01-30T11:35:38;33.70;;;19.98;;
32096;SDS011;18610;49.916;8.284;2024-01-30T11:38:06;38.33;;;24.10;;
32096;SDS011;18610;49.916;8.284;2024-01-30T11:40:34;32.83;;;20.50;;
32096;SDS011;18610;49.916;8.284;2024-01-30T11:43:02;34.40;;;20.02;;
32096;SDS011;18610;49.916;8.284;2024-01-30T11:45:30;42.17;;;19.90;;
32096;SDS011;18610;49.916;8.284;2024-01-30T11:47:59;39.17;;;20.02;;
32096;SDS011;18610;49.916;8.284;2024-01-30T11:50:28;34.92;;;18.77;;
32096;SDS011;18610;49.916;8.284;2024-01-30T11:52:55;30.67;;;18.25;;
32096;SDS011;18610;49.916;8.284;2024-01-30T11:55:22;38.63;;;19.88;;
32096;SDS011;18610;49.916;8.284;2024-01-30T11:57:49;33.65;;;19.88;;
32096;SDS011;18610;49.916;8.284;2024-01-30T12:00:16;30.15;;;19.77;;
32096;SDS011;18610;49.916;8.284;2024-01-30T12:02:44;28.67;;;18.48;;
32096;SDS011;18610;49.916;8.284;2024-01-30T12:05:18;38.30;;;19.40;;
32096;SDS011;18610;49.916;8.284;2024-01-30T12:07:45;34.20;;;19.13;;
32096;SDS011;18610;49.916;8.284;2024-01-30T12:10:12;33.28;;;19.55;;
32096;SDS011;18610;49.916;8.284;2024-01-30T12:12:40;38.53;;;19.27;;
32096;SDS011;18610;49.916;8.284;2024-01-30T12:15:08;30.90;;;19.50;;
32096;SDS011;18610;49.916;8.284;2024-01-30T12:17:36;34.35;;;18.77;;
32096;SDS011;18610;49.916;8.284;2024-01-30T12:20:03;36.00;;;20.67;;
32096;SDS011;18610;49.916;8.284;2024-01-30T12:22:32;31.27;;;18.77;;
32096;SDS011;18610;49.916;8.284;2024-01-30T12:25:03;34.33;;;18.23;;
32096;SDS011;18610;49.916;8.284;2024-01-30T12:27:30;29.85;;;18.45;;
32096;SDS011;18610;49.916;8.284;2024-01-30T12:29:57;30.98;;;17.00;;
32096;SDS011;18610;49.916;8.284;2024-01-30T12:32:24;34.20;;;18.23;;
32096;SDS011;18610;49.916;8.284;2024-01-30T12:34:54;29.70;;;18.02;;
32096;SDS011;18610;49.916;8.284;2024-01-30T12:37:21;32.10;;;18.08;;
32096;SDS011;18610;49.916;8.284;2024-01-30T12:39:51;31.27;;;18.42;;
32096;SDS011;18610;49.916;8.284;2024-01-30T12:42:19;27.52;;;17.05;;
32096;SDS011;18610;49.916;8.284;2024-01-30T12:44:46;29.02;;;16.92;;
32096;SDS011;18610;49.916;8.284;2024-01-30T12:47:13;25.33;;;16.77;;
32096;SDS011;18610;49.916;8.284;2024-01-30T12:49:42;31.45;;;17.73;;
32096;SDS011;18610;49.916;8.284;2024-01-30T12:52:09;25.38;;;16.98;;
32096;SDS011;18610;49.916;8.284;2024-01-30T12:54:36;27.77;;;17.23;;
32096;SDS011;18610;49.916;8.284;2024-01-30T12:57:04;25.85;;;16.98;;
32096;SDS011;18610;49.916;8.284;2024-01-30T12:59:31;29.15;;;16.70;;
32096;SDS011;18610;49.916;8.284;2024-01-30T13:01:59;29.90;;;15.43;;
32096;SDS011;18610;49.916;8.284;2024-01-30T13:04:26;30.23;;;19.42;;
32096;SDS011;18610;49.916;8.284;2024-01-30T13:06:53;27.38;;;17.23;;
32096;SDS011;18610;49.916;8.284;2024-01-30T13:09:20;28.88;;;17.45;;
32096;SDS011;18610;49.916;8.284;2024-01-30T13:11:48;24.80;;;16.52;;
32096;SDS011;18610;49.916;8.284;2024-01-30T13:14:17;27.65;;;17.10;;
32096;SDS011;18610;49.916;8.284;2024-01-30T13:16:44;28.20;;;17.05;;
32096;SDS011;18610;49.916;8.284;2024-01-30T13:19:11;28.60;;;17.25;;
32096;SDS011;18610;49.916;8.284;2024-01-30T13:21:37;25.90;;;16.42;;
32096;SDS011;18610;49.916;8.284;2024-01-30T13:24:04;27.10;;;15.75;;
32096;SDS011;18610;49.916;8.284;2024-01-30T13:26:33;24.08;;;16.38;;
32096;SDS011;18610;49.916;8.284;2024-01-30T13:29:00;38.55;;;19.88;;
32096;SDS011;18610;49.916;8.284;2024-01-30T13:31:28;23.65;;;15.82;;
32096;SDS011;18610;49.916;8.284;2024-01-30T13:33:55;29.85;;;16.17;;
32096;SDS011;18610;49.916;8.284;2024-01-30T13:36:22;29.05;;;16.50;;
32096;SDS011;18610;49.916;8.284;2024-01-30T13:38:48;33.50;;;18.63;;
32096;SDS011;18610;49.916;8.284;2024-01-30T13:41:15;26.80;;;16.60;;
32096;SDS011;18610;49.916;8.284;2024-01-30T13:43:43;27.60;;;16.77;;
32096;SDS011;18610;49.916;8.284;2024-01-30T13:46:09;27.55;;;16.80;;
32096;SDS011;18610;49.916;8.284;2024-01-30T13:48:38;27.45;;;17.60;;
32096;SDS011;18610;49.916;8.284;2024-01-30T13:51:04;29.33;;;18.25;;
32096;SDS011;18610;49.916;8.284;2024-01-30T13:53:31;36.28;;;18.42;;
32096;SDS011;18610;49.916;8.284;2024-01-30T13:55:58;28.55;;;17.92;;
32096;SDS011;18610;49.916;8.284;2024-01-30T13:58:25;30.75;;;18.55;;
32096;SDS011;18610;49.916;8.284;2024-01-30T14:00:52;31.38;;;19.15;;
32096;SDS011;18610;49.916;8.284;2024-01-30T14:03:19;26.30;;;17.35;;
32096;SDS011;18610;49.916;8.284;2024-01-30T14:05:48;30.83;;;18.17;;
32096;SDS011;18610;49.916;8.284;2024-01-30T14:08:15;33.17;;;18.95;;
32096;SDS011;18610;49.916;8.284;2024-01-30T14:10:41;31.08;;;19.42;;
32096;SDS011;18610;49.916;8.284;2024-01-30T14:13:08;30.25;;;17.77;;
32096;SDS011;18610;49.916;8.284;2024-01-30T14:15:36;26.08;;;17.67;;
32096;SDS011;18610;49.916;8.284;2024-01-30T14:18:03;32.28;;;18.92;;
32096;SDS011;18610;49.916;8.284;2024-01-30T14:20:30;29.95;;;18.10;;